I Watch It For The Plot // 10.1 TiB free of 113 TiB

c File Name Size Date
parent folder--
-1017680.json80202025-05-01 08:43:46
-1017680_1400386_hcpierlingpitstop_judy_hopps_request_ms_p_for_stormers-attitoons_.png3491202025-05-01 08:43:46
-386192.json74952025-04-20 15:28:35
-386192_496837_HCpierlingpitstop_now_you_get_it_ms_paint_smaller_size.png2914282025-04-20 15:28:35
-567987.json75632025-04-14 05:21:11
-567987_745015_HCpierlingpitstop_laffuhhhlympics_ms_paint.png3040302025-04-14 05:21:11
-597685.json60472025-04-23 17:11:17
-597685_785174_HCpierlingpitstop_toony_chibi_fox_ms_paint.png2425672025-04-23 17:11:17
-597918.json67702025-04-23 17:17:12
-597918_785449_hcpierlingpitstop_echo_request_for_noahstudios2002_ms_paint_.png1805882025-04-23 17:17:12
-627959.json66412025-04-24 05:18:58
-627959_826522_HCpierlingpitstop_bonkers_with_a_beach_ball_ms_paint.png4099442025-04-24 05:18:58
-632990.json74402025-04-24 07:09:15
-632990_833593_HCpierlingpitstop_giant_sangglekitty_and_small_mildew_wolf_pup_ms_paint.png2810142025-04-24 07:09:15
-638124.json65192025-04-24 09:03:52
-638124_840929_HCpierlingpitstop_chibish_orko_ms_paint_new_for_2014.png2697242025-04-24 09:03:52
-644831.json63472025-04-24 11:44:05
-644831_850360_hcpierlingpitstop_random_ms_paint_orko_2014_again_.png2091532025-04-24 11:44:05
-660362.json74552025-04-24 17:47:48
-660362_872488_hcpierlingpitstop_chibi_jafar_ms_paint_broadway_sega_plush_inspired_.png2358482025-04-24 17:47:48
-660364.json65832025-04-24 17:47:50
-660364_872490_hcpierlingpitstop_another_chibi_jafar_altered_a_bit_ms_paint_o_.png2389282025-04-24 17:47:50
-705120.json66042025-04-25 10:37:44
-705120_939655_hcpierlingpitstop_angry_uncle_deadly_ms_paint_.png3682562025-04-25 10:37:44
-705122.json71432025-04-25 10:37:47
-705122_939659_hcpierlingpitstop_laffalympics_mildew_wolf_newer_for_2014_again_ms_paint_0_.png3140612025-04-25 10:37:47
-705125.json69272025-04-25 10:37:51
-705125_939664_hcpierlingpitstop_my_mom_made_it_for_me_ms_paint_.png3160832025-04-25 10:37:51
-784416.json82192025-04-26 16:13:47
-784416_1060264_hcpierlingpitstop_they_say_its_your_birthday_ms_paint_.png1909692025-04-26 16:13:47
-786649.json64552025-04-26 17:02:03
-786649_1063270_hcpierlingpitstop_chester_cheetha_ms_paint_new_for_2015_.png4690112025-04-26 17:02:03
-786650.json69562025-04-26 17:02:05
-786650_1063271_hcpierlingpitstop_wakko_ms_paint_attempt_new_for_2015_.png1989472025-04-26 17:02:05
-789553.json70202025-04-26 18:07:31
-789553_1067203_hcpierlingpitstop_snagglepuss_ms_paint_new_for_2015_ref_used_.png2687912025-04-26 18:07:31
-789555.json73352025-04-26 18:07:34
-789555_1067205_HCpierlingpitstop_a_cute_snagglepuss_chibi_new_for_2015_ms_paint__ref_used.png3624492025-04-26 18:07:34
-790639.json76992025-04-26 18:31:13
-790639_1068772_HCpierlingpitstop_powdered_toast_angel_ms_paint.png2117252025-04-26 18:31:13
-793374.json69852025-04-26 19:33:00
-793374_1072683_hcpierlingpitstop_sangglepuss_ms_paint_same_ref_used_again_.png3291812025-04-26 19:33:00
-794566.json76572025-04-26 20:00:06
-794566_1074283_hcpierlingpitstop_penelope_vs_the_claw_ms_paint_p_.png4715132025-04-26 20:00:06
-799780.json66662025-04-26 21:57:32
-799780_1081820_HCpierlingpitstop_baypuft_request_ms_paint.png2377382025-04-26 21:57:32
-799867.json71422025-04-26 22:00:13
-799867_1082025_hcpierlingpitstop_chubby_chibi_stitch_chibi_request_ms_paint_.png3102382025-04-26 22:00:13
-801086.json67592025-04-26 22:30:31
-801086_1083775_HCpierlingpitstop_chibi_snagglespuss_ms_paint.jpg300332025-04-26 22:30:31
-802064.json63872025-04-26 22:53:12
-802064_1085196_hcpierlingpitstop_mantenna_chibi_ms_paint_.png2371812025-04-26 22:53:12
-802066.json69702025-04-26 22:53:15
-802066_1085199_hcpierlingpitstop_mantenna_chibi_ms_paint_bug_eyed_version_.png1929862025-04-26 22:53:15
-802554.json71442025-04-26 23:04:09
-802554_1085860_HCpierlingpitstop_courage_the_cowardly_dog_plush_request_ms_paint_smaller.png2939142025-04-26 23:04:09
-803234.json73422025-04-26 23:19:19
-803234_1086825_HCpierlingpitstop_slyvester_sneekly_plushie_ms_paint.png2074422025-04-26 23:19:19
-803289.json63712025-04-26 23:20:29
-803289_1086886_hcpierlingpitstop_slyvester_sneekly_plush_alternate_hooded_claw_ms_paint_.png3331352025-04-26 23:20:29
-803874.json63472025-04-26 23:33:09
-803874_1087752_hcpierlingpitstop_oh_ms_paint_.png4537392025-04-26 23:33:09
-803902.json72392025-04-26 23:33:49
-803902_1087801_hcpierlingpitstop_oh_a_little_late_for_christmas_ms_paint_.png3965512025-04-26 23:33:49
-882570.json67302025-04-28 05:21:17
-882570_1201465_hcpierlingpitstop_cedric_pop_again_ms_paint_0_0.png3605622025-04-28 05:21:17
-886548.json65792025-04-28 06:48:53
-886548_1207340_HCpierlingpitstop_another_cute_random_chibi_cedric_ms_paint.png6693942025-04-28 06:48:53
-945730.json62762025-04-29 05:24:51
-945730_1294329_HCpierlingpitstop_mantenna_evil_smirk_ms_paint_refs_used.png2734312025-04-29 05:24:51
-951517.json63162025-04-29 07:27:38
-951517_1303018_HCpierlingpitstop_wacko_pop_ms_paint.png3121622025-04-29 07:27:38
-956581.json69522025-04-29 09:17:23
-956581_1309897_HCpierlingpitstop_cedric_the_salamander_ms_paint.png3566032025-04-29 09:17:23

control-panel